createdAt,value
2018-03-10T00:01:32.230Z,56.80
2018-03-10T00:03:59.221Z,56.80
2018-03-10T00:06:26.541Z,56.80
2018-03-10T00:08:54.606Z,57.00
2018-03-10T00:11:22.382Z,57.10
2018-03-10T00:13:49.366Z,57.10
2018-03-10T00:16:15.610Z,57.00
2018-03-10T00:18:42.198Z,57.70
2018-03-10T00:21:09.258Z,57.10
2018-03-10T00:23:37.842Z,56.90
2018-03-10T00:26:05.509Z,57.10
2018-03-10T00:28:33.181Z,57.60
2018-03-10T00:31:00.178Z,57.00
2018-03-10T00:33:26.427Z,57.00
2018-03-10T00:35:52.909Z,57.10
2018-03-10T00:38:19.889Z,57.20
2018-03-10T00:40:47.010Z,57.20
2018-03-10T00:43:14.681Z,57.20
2018-03-10T00:45:41.722Z,57.10
2018-03-10T00:48:08.778Z,57.00
2018-03-10T00:50:36.550Z,56.30
2018-03-10T00:53:04.418Z,57.10
2018-03-10T00:55:31.411Z,57.80
2018-03-10T00:57:58.733Z,57.10
2018-03-10T01:00:25.730Z,56.90
2018-03-10T01:02:51.965Z,56.80
2018-03-10T01:05:19.074Z,56.90
2018-03-10T01:07:46.946Z,57.00
2018-03-10T01:10:14.882Z,56.80
2018-03-10T01:12:41.134Z,56.80
2018-03-10T01:15:22.526Z,56.80
2018-03-10T01:17:48.809Z,56.80
2018-03-10T01:20:16.949Z,56.40
2018-03-10T01:22:44.716Z,56.30
2018-03-10T01:25:11.706Z,56.50
2018-03-10T01:27:38.813Z,56.40
2018-03-10T01:30:05.874Z,56.60
2018-03-10T01:32:32.852Z,56.60
2018-03-10T01:35:14.058Z,56.60
2018-03-10T01:37:40.312Z,56.60
2018-03-10T01:40:06.658Z,56.40
2018-03-10T01:42:33.827Z,56.40
2018-03-10T01:45:00.810Z,56.50
2018-03-10T01:47:27.725Z,56.50
2018-03-10T01:49:55.497Z,56.90
2018-03-10T01:52:22.541Z,57.00
2018-03-10T01:54:48.789Z,56.90
2018-03-10T01:57:16.143Z,57.50
2018-03-10T01:59:43.907Z,57.40
2018-03-10T02:02:11.272Z,57.40
2018-03-10T02:04:38.266Z,57.70
2018-03-10T02:07:05.429Z,57.70
2018-03-10T02:09:32.426Z,57.50
2018-03-10T02:11:59.417Z,57.60
2018-03-10T02:14:25.709Z,57.60
2018-03-10T02:16:52.253Z,57.40
2018-03-10T02:19:19.242Z,57.90
2018-03-10T02:21:46.466Z,57.20
2018-03-10T02:24:13.443Z,57.30
2018-03-10T02:26:40.578Z,57.30
2018-03-10T02:29:07.565Z,57.30
2018-03-10T02:31:34.410Z,57.30
2018-03-10T02:34:00.661Z,57.10
2018-03-10T02:36:26.942Z,57.20
2018-03-10T02:38:53.254Z,57.50
2018-03-10T02:41:20.334Z,57.30
2018-03-10T02:43:47.994Z,57.90
2018-03-10T02:46:14.987Z,57.80
2018-03-10T02:48:41.994Z,57.80
2018-03-10T02:51:08.234Z,57.80
2018-03-10T02:53:35.220Z,57.70
2018-03-10T02:56:01.730Z,57.60
2018-03-10T02:58:29.802Z,57.80
2018-03-10T03:00:57.466Z,57.80
2018-03-10T03:03:25.346Z,57.60
2018-03-10T03:05:53.121Z,57.70
2018-03-10T03:08:20.878Z,57.80
2018-03-10T03:10:47.855Z,58.00
2018-03-10T03:13:14.882Z,58.00
2018-03-10T03:15:41.866Z,58.10
2018-03-10T03:18:08.783Z,58.00
2018-03-10T03:20:36.756Z,58.20
2018-03-10T03:23:03.746Z,58.70
2018-03-10T03:25:29.990Z,58.60
2018-03-10T03:27:57.618Z,58.60
2018-03-10T03:30:23.876Z,58.50
2018-03-10T03:32:50.117Z,58.80
2018-03-10T03:35:16.718Z,58.80
2018-03-10T03:37:43.707Z,58.80
2018-03-10T03:40:10.036Z,58.80
2018-03-10T03:42:37.029Z,58.80
2018-03-10T03:45:04.002Z,58.70
2018-03-10T03:47:30.253Z,58.70
2018-03-10T03:49:57.269Z,59.10
2018-03-10T03:52:23.838Z,59.10
2018-03-10T03:54:50.814Z,59.20
2018-03-10T03:57:18.051Z,59.30
2018-03-10T03:59:45.923Z,59.10
2018-03-10T04:02:13.690Z,59.30
2018-03-10T04:04:42.992Z,59.30
2018-03-10T04:07:10.598Z,59.30
2018-03-10T04:09:37.670Z,59.30
2018-03-10T04:12:04.862Z,59.30
2018-03-10T04:14:31.914Z,59.50
2018-03-10T04:16:58.971Z,59.50
2018-03-10T04:19:25.938Z,60.40
2018-03-10T04:21:53.202Z,60.40
2018-03-10T04:24:19.450Z,60.60
2018-03-10T04:26:47.011Z,61.20
2018-03-10T04:29:13.254Z,60.30
2018-03-10T04:31:39.498Z,60.70
2018-03-10T04:34:06.187Z,61.00
2018-03-10T04:36:33.183Z,61.70
2018-03-10T04:38:59.530Z,61.70
2018-03-10T04:41:25.804Z,61.10
2018-03-10T04:43:52.958Z,61.70
2018-03-10T04:46:19.204Z,61.70
2018-03-10T04:48:46.259Z,61.90
2018-03-10T04:51:13.619Z,61.90
2018-03-10T04:53:40.603Z,62.00
2018-03-10T04:56:07.623Z,62.10
2018-03-10T04:58:35.390Z,61.80
2018-03-10T05:01:03.257Z,62.10
2018-03-10T05:03:30.224Z,61.90
2018-03-10T05:05:57.363Z,61.90
2018-03-10T05:08:25.134Z,62.20
2018-03-10T05:10:52.176Z,62.00
2018-03-10T05:13:19.236Z,62.00
2018-03-10T05:15:46.243Z,61.80
2018-03-10T05:18:12.499Z,61.70
2018-03-10T05:20:39.587Z,61.90
2018-03-10T05:23:06.568Z,63.00
2018-03-10T05:25:32.803Z,63.00
2018-03-10T05:27:59.808Z,62.80
2018-03-10T05:30:26.041Z,62.80
2018-03-10T05:32:52.382Z,62.60
2018-03-10T05:35:19.645Z,62.50
2018-03-10T05:37:46.645Z,62.80
2018-03-10T05:40:13.753Z,62.60
2018-03-10T05:42:41.541Z,62.80
2018-03-10T05:45:07.787Z,62.80
2018-03-10T05:47:34.041Z,62.60
2018-03-10T05:50:00.533Z,62.50
2018-03-10T05:52:27.531Z,62.40
2018-03-10T05:54:54.634Z,62.40
2018-03-10T05:57:22.513Z,62.40
2018-03-10T05:59:50.377Z,62.20
2018-03-10T06:02:17.377Z,62.50
2018-03-10T06:04:44.892Z,62.40
2018-03-10T06:07:11.867Z,62.40
2018-03-10T06:09:39.102Z,62.40
2018-03-10T06:12:07.072Z,62.50
2018-03-10T06:14:34.060Z,63.00
2018-03-10T06:17:00.370Z,63.00
2018-03-10T06:19:27.387Z,62.50
2018-03-10T06:21:54.584Z,62.50
2018-03-10T06:24:20.825Z,62.00
2018-03-10T06:26:48.062Z,62.30
2018-03-10T06:29:15.069Z,61.70
2018-03-10T06:31:41.589Z,61.70
2018-03-10T06:34:08.192Z,61.70
2018-03-10T06:36:35.172Z,61.80
2018-03-10T06:39:01.614Z,61.90
2018-03-10T06:41:28.237Z,61.50
2018-03-10T06:43:56.109Z,61.90
2018-03-10T06:46:23.092Z,61.70
2018-03-10T06:48:50.003Z,61.60
2018-03-10T06:51:17.781Z,60.90
2018-03-10T06:53:44.777Z,61.00
2018-03-10T06:56:11.770Z,60.90
2018-03-10T06:58:39.538Z,60.90
2018-03-10T07:01:07.408Z,61.40
2018-03-10T07:03:34.393Z,60.60
2018-03-10T07:06:01.513Z,60.60
2018-03-10T07:08:28.582Z,60.20
2018-03-10T07:10:55.573Z,60.00
2018-03-10T07:13:21.819Z,60.00
2018-03-10T07:15:48.108Z,60.10
2018-03-10T07:18:14.356Z,60.10
2018-03-10T07:20:41.473Z,60.10
2018-03-10T07:23:07.716Z,59.80
2018-03-10T07:25:34.745Z,59.70
2018-03-10T07:28:01.761Z,59.70
2018-03-10T07:30:28.022Z,59.90
2018-03-10T07:32:55.099Z,59.60
2018-03-10T07:35:21.353Z,59.50
2018-03-10T07:37:48.339Z,59.10
2018-03-10T07:40:14.930Z,59.10
2018-03-10T07:42:42.286Z,59.10
2018-03-10T07:45:08.539Z,59.40
2018-03-10T07:47:36.300Z,58.10
2018-03-10T07:50:04.072Z,57.80
2018-03-10T07:52:31.838Z,57.90
2018-03-10T07:54:59.607Z,57.50
2018-03-10T07:57:27.586Z,58.20
2018-03-10T07:59:54.579Z,57.00
2018-03-10T08:02:20.840Z,57.00
2018-03-10T08:04:48.338Z,57.20
2018-03-10T08:07:16.302Z,57.20
2018-03-10T08:09:43.291Z,56.50
2018-03-10T08:12:09.531Z,56.50
2018-03-10T08:14:35.798Z,55.00
2018-03-10T08:17:02.055Z,54.80
2018-03-10T08:19:29.154Z,54.20
2018-03-10T08:21:56.587Z,54.20
2018-03-10T08:24:23.566Z,53.90
2018-03-10T08:26:53.750Z,53.90
2018-03-10T08:29:20.736Z,54.70
2018-03-10T08:31:46.998Z,54.70
2018-03-10T08:34:13.571Z,55.00
2018-03-10T08:36:40.563Z,54.60
2018-03-10T08:39:06.927Z,53.90
2018-03-10T08:41:33.456Z,54.20
2018-03-10T08:44:00.459Z,54.10
2018-03-10T08:46:28.224Z,54.10
2018-03-10T08:48:55.274Z,53.80
2018-03-10T08:51:23.043Z,54.80
2018-03-10T08:53:50.018Z,54.40
2018-03-10T08:56:16.271Z,53.40
2018-03-10T08:58:43.381Z,53.10
2018-03-10T09:01:10.948Z,52.00
2018-03-10T09:03:38.826Z,52.50
2018-03-10T09:06:06.486Z,52.00
2018-03-10T09:08:33.467Z,52.00
2018-03-10T09:10:59.806Z,52.00
2018-03-10T09:13:26.500Z,52.10
2018-03-10T09:15:52.747Z,51.10
2018-03-10T09:18:19.077Z,50.40
2018-03-10T09:20:46.449Z,51.60
2018-03-10T09:23:13.467Z,51.30
2018-03-10T09:25:39.699Z,50.70
2018-03-10T09:28:06.674Z,51.20
2018-03-10T09:30:32.909Z,50.30
2018-03-10T09:32:59.251Z,49.40
2018-03-10T09:35:25.810Z,49.70
2018-03-10T09:37:52.790Z,50.00
2018-03-10T09:40:19.870Z,49.80
2018-03-10T09:42:46.126Z,49.90
2018-03-10T09:45:13.138Z,49.50
2018-03-10T09:47:40.451Z,48.90
2018-03-10T09:50:08.222Z,49.80
2018-03-10T09:52:35.942Z,49.20
2018-03-10T09:55:02.230Z,49.20
2018-03-10T09:57:29.989Z,48.70
2018-03-10T09:59:56.979Z,48.10
2018-03-10T10:02:23.924Z,47.90
2018-03-10T10:04:51.042Z,47.50
2018-03-10T10:07:18.014Z,48.40
2018-03-10T10:09:44.986Z,47.60
2018-03-10T10:12:12.102Z,47.40
2018-03-10T10:14:39.098Z,48.00
2018-03-10T10:17:05.399Z,47.40
2018-03-10T10:19:32.710Z,47.30
2018-03-10T10:21:59.707Z,47.10
2018-03-10T10:24:26.730Z,47.00
2018-03-10T10:26:52.980Z,46.90
2018-03-10T10:29:19.942Z,46.50
2018-03-10T10:31:47.604Z,46.20
2018-03-10T10:34:14.598Z,45.40
2018-03-10T10:36:40.853Z,45.40
2018-03-10T10:39:07.954Z,45.60
2018-03-10T10:41:35.714Z,46.20
2018-03-10T10:44:02.719Z,45.20
2018-03-10T10:46:29.722Z,45.00
2018-03-10T10:48:56.716Z,45.50
2018-03-10T10:51:22.965Z,45.50
2018-03-10T10:53:50.884Z,45.20
2018-03-10T10:56:17.890Z,45.00
2018-03-10T10:58:44.986Z,45.00
2018-03-10T11:01:12.006Z,44.70
2018-03-10T11:03:43.307Z,44.70
2018-03-10T11:06:10.334Z,44.60
2018-03-10T11:08:37.310Z,43.90
2018-03-10T11:11:03.563Z,44.50
2018-03-10T11:13:30.061Z,43.60
2018-03-10T11:15:57.058Z,44.30
2018-03-10T11:18:23.389Z,44.30
2018-03-10T11:20:51.358Z,44.60
2018-03-10T11:23:17.619Z,44.70
2018-03-10T11:25:43.863Z,44.70
2018-03-10T11:28:11.051Z,43.60
2018-03-10T11:30:38.046Z,43.70
2018-03-10T11:33:04.310Z,43.50
2018-03-10T11:35:31.386Z,43.50
2018-03-10T11:37:58.367Z,42.30
2018-03-10T11:40:25.509Z,42.20
2018-03-10T11:42:53.358Z,43.80
2018-03-10T11:45:19.643Z,42.90
2018-03-10T11:47:46.654Z,41.90
2018-03-10T11:50:13.649Z,43.80
2018-03-10T11:52:39.899Z,43.80
2018-03-10T11:55:06.178Z,43.30
2018-03-10T11:57:34.258Z,43.00
2018-03-10T12:00:01.254Z,43.40
2018-03-10T12:02:27.506Z,43.30
2018-03-10T12:04:56.019Z,43.90
2018-03-10T12:07:23.005Z,43.50
2018-03-10T12:09:49.255Z,43.40
2018-03-10T12:12:17.083Z,43.80
2018-03-10T12:14:45.130Z,43.50
2018-03-10T12:17:11.383Z,43.60
2018-03-10T12:19:38.375Z,43.70
2018-03-10T12:22:05.493Z,43.50
2018-03-10T12:24:32.474Z,42.60
2018-03-10T12:26:58.778Z,42.60
2018-03-10T12:29:26.549Z,43.90
2018-03-10T12:31:53.534Z,44.40
2018-03-10T12:34:20.522Z,45.00
2018-03-10T12:36:47.605Z,43.30
2018-03-10T12:39:15.378Z,43.70
2018-03-10T12:41:43.142Z,43.70
2018-03-10T12:44:10.138Z,44.00
2018-03-10T12:46:36.410Z,44.00
2018-03-10T12:49:03.077Z,44.20
2018-03-10T12:51:30.071Z,43.60
2018-03-10T12:53:57.589Z,43.60
2018-03-10T12:56:25.565Z,43.50
2018-03-10T12:58:53.340Z,43.90
2018-03-10T13:01:19.590Z,43.80
2018-03-10T13:03:45.834Z,44.30
2018-03-10T13:06:12.853Z,44.60
2018-03-10T13:08:39.845Z,44.80
2018-03-10T13:11:07.781Z,44.80
2018-03-10T13:13:35.538Z,44.30
2018-03-10T13:16:02.502Z,44.30
2018-03-10T13:18:44.417Z,45.50
2018-03-10T13:21:11.534Z,45.50
2018-03-10T13:23:37.776Z,44.90
2018-03-10T13:26:04.762Z,44.80
2018-03-10T13:28:31.882Z,44.80
2018-03-10T13:30:59.754Z,44.30
2018-03-10T13:33:27.627Z,44.10
2018-03-10T13:35:54.739Z,44.80
2018-03-10T13:38:21.941Z,44.80
2018-03-10T13:40:48.938Z,44.90
2018-03-10T13:43:15.215Z,44.80
2018-03-10T13:45:42.581Z,45.20
2018-03-10T13:48:09.561Z,45.00
2018-03-10T13:50:35.909Z,45.00
2018-03-10T13:53:02.930Z,44.70
2018-03-10T13:55:29.986Z,45.20
2018-03-10T13:57:57.021Z,45.10
2018-03-10T14:00:24.382Z,45.20
2018-03-10T14:03:05.562Z,45.10
2018-03-10T14:05:33.226Z,44.90
2018-03-10T14:08:00.221Z,45.00
2018-03-10T14:10:26.485Z,45.00
2018-03-10T14:12:52.754Z,44.60
2018-03-10T14:15:20.514Z,44.30
2018-03-10T14:17:47.561Z,43.90
2018-03-10T14:20:13.806Z,43.80
2018-03-10T14:22:41.516Z,43.70
2018-03-10T14:25:08.621Z,43.60
2018-03-10T14:27:36.798Z,44.30
2018-03-10T14:30:03.082Z,43.50
2018-03-10T14:32:30.301Z,42.70
2018-03-10T14:34:58.538Z,42.40
2018-03-10T14:37:24.799Z,42.30
2018-03-10T14:39:51.850Z,41.70
2018-03-10T14:42:18.384Z,41.80
2018-03-10T14:44:45.363Z,42.40
2018-03-10T14:47:13.117Z,42.10
2018-03-10T14:49:40.074Z,42.00
2018-03-10T14:52:07.062Z,43.10
2018-03-10T14:54:33.314Z,43.00
2018-03-10T14:56:59.906Z,42.90
2018-03-10T14:59:27.678Z,42.70
2018-03-10T15:01:54.662Z,43.20
2018-03-10T15:04:33.954Z,43.10
2018-03-10T15:07:01.726Z,43.60
2018-03-10T15:09:28.746Z,43.50
2018-03-10T15:11:55.027Z,43.40
2018-03-10T15:14:22.892Z,44.30
2018-03-10T15:16:49.886Z,44.30
2018-03-10T15:19:17.256Z,44.30
2018-03-10T15:21:44.251Z,44.70
2018-03-10T15:24:11.238Z,44.50
2018-03-10T15:26:37.483Z,44.40
2018-03-10T15:29:04.590Z,44.70
2018-03-10T15:31:31.566Z,44.80
2018-03-10T15:33:58.590Z,44.70
2018-03-10T15:36:25.572Z,44.90
2018-03-10T15:38:51.826Z,44.80
2018-03-10T15:41:18.830Z,44.80
2018-03-10T15:43:45.867Z,45.00
2018-03-10T15:46:13.030Z,45.00
2018-03-10T15:48:40.920Z,46.50
2018-03-10T15:51:07.186Z,46.10
2018-03-10T15:53:33.456Z,46.00
2018-03-10T15:56:00.027Z,46.10
2018-03-10T15:58:28.090Z,46.30
2018-03-10T16:00:55.076Z,46.20
2018-03-10T16:03:22.003Z,46.10
2018-03-10T16:05:50.661Z,46.60
2018-03-10T16:08:16.908Z,46.60
2018-03-10T16:10:43.151Z,46.70
2018-03-10T16:13:10.158Z,47.60
2018-03-10T16:15:37.380Z,47.60
2018-03-10T16:18:04.619Z,48.00
2018-03-10T16:20:32.498Z,48.90
2018-03-10T16:22:59.476Z,48.80
2018-03-10T16:25:25.718Z,48.80
2018-03-10T16:27:53.036Z,49.10
2018-03-10T16:30:21.009Z,49.20
2018-03-10T16:32:48.035Z,49.50
2018-03-10T16:35:14.358Z,49.50
2018-03-10T16:37:40.881Z,50.30
2018-03-10T16:40:07.134Z,49.60
2018-03-10T16:42:33.475Z,50.10
2018-03-10T16:45:00.563Z,50.00
2018-03-10T16:47:27.562Z,50.20
2018-03-10T16:49:54.675Z,50.10
2018-03-10T16:52:21.666Z,51.50
2018-03-10T16:54:47.913Z,51.60
2018-03-10T16:57:15.212Z,51.30
2018-03-10T16:59:42.938Z,52.30
2018-03-10T17:02:09.226Z,52.30
2018-03-10T17:04:37.083Z,53.20
2018-03-10T17:07:05.258Z,53.10
2018-03-10T17:09:31.507Z,53.10
2018-03-10T17:11:58.538Z,53.80
2018-03-10T17:14:25.645Z,53.90
2018-03-10T17:16:51.894Z,53.80
2018-03-10T17:19:18.149Z,54.20
2018-03-10T17:21:45.443Z,54.30
2018-03-10T17:24:13.198Z,54.50
2018-03-10T17:26:40.186Z,54.40
2018-03-10T17:29:07.206Z,54.50
2018-03-10T17:31:34.211Z,57.30
2018-03-10T17:34:00.491Z,57.60
2018-03-10T17:36:27.508Z,58.00
2018-03-10T17:38:53.777Z,58.00
2018-03-10T17:41:21.867Z,57.70
2018-03-10T17:43:49.523Z,56.40
2018-03-10T17:46:17.195Z,57.10
2018-03-10T17:48:44.966Z,56.90
2018-03-10T17:51:11.947Z,57.70
2018-03-10T17:53:38.281Z,57.80
2018-03-10T17:56:04.898Z,57.90
2018-03-10T17:58:34.212Z,58.30
2018-03-10T18:01:00.469Z,58.60
2018-03-10T18:03:27.794Z,57.90
2018-03-10T18:05:55.746Z,58.10
2018-03-10T18:08:23.153Z,59.40
2018-03-10T18:10:49.428Z,59.50
2018-03-10T18:13:15.737Z,59.20
2018-03-10T18:15:41.986Z,60.60
2018-03-10T18:18:10.310Z,60.70
2018-03-10T18:20:38.483Z,60.70
2018-03-10T18:23:06.154Z,60.90
2018-03-10T18:25:33.915Z,60.40
2018-03-10T18:28:01.693Z,61.00
2018-03-10T18:30:29.358Z,60.40
2018-03-10T18:32:56.322Z,60.60
2018-03-10T18:35:23.262Z,60.70
2018-03-10T18:37:50.272Z,61.80
2018-03-10T18:40:17.270Z,61.90
2018-03-10T18:42:44.283Z,60.60
2018-03-10T18:45:11.266Z,60.80
2018-03-10T18:47:38.267Z,62.50
2018-03-10T18:50:05.375Z,62.50
2018-03-10T18:52:32.376Z,62.70
2018-03-10T18:54:58.630Z,62.70
2018-03-10T18:57:25.614Z,64.80
2018-03-10T18:59:52.621Z,63.70
2018-03-10T19:02:18.878Z,63.70
2018-03-10T19:04:45.842Z,63.50
2018-03-10T19:07:12.830Z,63.50
2018-03-10T19:09:39.082Z,63.60
2018-03-10T19:12:05.677Z,62.70
2018-03-10T19:14:32.667Z,64.50
2018-03-10T19:16:59.026Z,65.10
2018-03-10T19:19:26.195Z,64.70
2018-03-10T19:21:53.173Z,65.10
2018-03-10T19:24:21.758Z,64.50
2018-03-10T19:26:48.750Z,64.40
2018-03-10T19:29:15.996Z,64.40
2018-03-10T19:31:43.252Z,63.90
2018-03-10T19:34:09.502Z,65.10
2018-03-10T19:36:36.610Z,64.50
2018-03-10T19:39:04.416Z,64.30
2018-03-10T19:41:30.699Z,64.30
2018-03-10T19:43:57.894Z,64.50
2018-03-10T19:46:24.219Z,65.60
2018-03-10T19:48:52.421Z,66.20
2018-03-10T19:51:19.552Z,66.30
2018-03-10T19:53:46.554Z,66.00
2018-03-10T19:56:12.833Z,65.90
2018-03-10T19:58:40.828Z,66.50
2018-03-10T20:01:07.082Z,66.60
2018-03-10T20:03:34.202Z,65.60
2018-03-10T20:06:01.966Z,65.80
2018-03-10T20:08:29.022Z,65.80
2018-03-10T20:10:56.036Z,67.10
2018-03-10T20:13:22.324Z,67.10
2018-03-10T20:15:49.558Z,67.00
2018-03-10T20:18:17.325Z,67.80
2018-03-10T20:20:45.174Z,66.70
2018-03-10T20:23:12.918Z,67.60
2018-03-10T20:25:39.173Z,67.60
2018-03-10T20:28:06.155Z,66.60
2018-03-10T20:30:34.742Z,68.70
2018-03-10T20:33:01.758Z,67.00
2018-03-10T20:35:28.635Z,67.10
2018-03-10T20:37:56.505Z,69.20
2018-03-10T20:40:24.390Z,66.40
2018-03-10T20:42:51.379Z,67.50
2018-03-10T20:45:18.390Z,66.80
2018-03-10T20:47:45.396Z,67.80
2018-03-10T20:50:12.421Z,67.90
2018-03-10T20:52:39.643Z,67.80
2018-03-10T20:55:06.641Z,66.40
2018-03-10T20:57:33.866Z,66.20
2018-03-10T21:00:00.863Z,67.30
2018-03-10T21:02:27.172Z,67.30
2018-03-10T21:04:54.499Z,66.30
2018-03-10T21:07:21.524Z,65.20
2018-03-10T21:09:49.542Z,65.30
2018-03-10T21:12:15.894Z,65.50
2018-03-10T21:14:43.019Z,65.00
2018-03-10T21:17:10.061Z,65.10
2018-03-10T21:19:37.090Z,65.10
2018-03-10T21:22:04.339Z,65.00
2018-03-10T21:24:30.554Z,65.00
2018-03-10T21:26:56.829Z,64.40
2018-03-10T21:29:23.998Z,64.10
2018-03-10T21:31:50.248Z,64.40
2018-03-10T21:34:18.226Z,64.30
2018-03-10T21:36:45.373Z,64.20
2018-03-10T21:39:12.412Z,64.20
2018-03-10T21:41:38.680Z,64.10
2018-03-10T21:44:05.707Z,64.20
2018-03-10T21:46:32.744Z,64.10
2018-03-10T21:48:59.722Z,64.10
2018-03-10T21:51:26.801Z,64.70
2018-03-10T21:53:53.925Z,64.50
2018-03-10T21:56:20.917Z,64.60
2018-03-10T21:58:47.829Z,64.50
2018-03-10T22:01:15.715Z,64.70
2018-03-10T22:03:42.512Z,64.80
2018-03-10T22:06:09.602Z,64.80
2018-03-10T22:08:36.647Z,65.30
2018-03-10T22:11:02.884Z,65.30
2018-03-10T22:13:29.887Z,65.60
2018-03-10T22:15:56.882Z,65.30
2018-03-10T22:18:24.762Z,66.10
2018-03-10T22:20:53.531Z,65.50
2018-03-10T22:23:19.729Z,65.60
2018-03-10T22:25:45.970Z,66.10
2018-03-10T22:28:13.066Z,66.00
2018-03-10T22:30:40.837Z,66.00
2018-03-10T22:33:07.924Z,66.90
2018-03-10T22:35:34.778Z,66.90
2018-03-10T22:38:01.785Z,66.20
2018-03-10T22:40:28.770Z,66.90
2018-03-10T22:42:55.074Z,66.60
2018-03-10T22:45:23.050Z,67.10
2018-03-10T22:47:50.042Z,66.90
2018-03-10T22:50:17.258Z,66.90
2018-03-10T22:52:45.234Z,67.20
2018-03-10T22:55:12.954Z,67.30
2018-03-10T22:57:40.055Z,67.40
2018-03-10T23:00:07.821Z,67.30
2018-03-10T23:02:34.821Z,67.30
2018-03-10T23:05:02.234Z,67.30
2018-03-10T23:07:29.258Z,66.50
2018-03-10T23:09:56.141Z,66.40
2018-03-10T23:12:23.139Z,66.40
2018-03-10T23:14:50.272Z,66.40
2018-03-10T23:17:17.293Z,66.20
2018-03-10T23:19:44.285Z,66.80
2018-03-10T23:22:11.202Z,66.90
2018-03-10T23:24:38.242Z,67.00
2018-03-10T23:27:05.234Z,66.90
2018-03-10T23:29:32.450Z,66.80
2018-03-10T23:31:59.436Z,67.00
2018-03-10T23:34:25.678Z,67.00
2018-03-10T23:36:52.701Z,66.90
2018-03-10T23:39:19.693Z,67.00
2018-03-10T23:41:45.943Z,66.90
2018-03-10T23:44:12.522Z,67.90
2018-03-10T23:46:39.585Z,67.70
2018-03-10T23:49:07.656Z,67.20
2018-03-10T23:51:35.331Z,68.00
2018-03-10T23:54:02.323Z,67.50
2018-03-10T23:56:28.565Z,67.50
2018-03-10T23:58:56.587Z,67.70
